createdAt,value
2018-07-22T00:01:18.079Z,16.27
2018-07-22T00:04:49.231Z,18.27
2018-07-22T00:07:17.683Z,17.07
2018-07-22T00:09:46.217Z,17.27
2018-07-22T00:12:14.689Z,14.60
2018-07-22T00:14:43.727Z,17.57
2018-07-22T00:17:12.260Z,14.70
2018-07-22T00:19:40.700Z,13.77
2018-07-22T00:22:09.156Z,12.00
2018-07-22T00:24:37.664Z,13.20
2018-07-22T00:27:06.019Z,14.60
2018-07-22T00:29:34.608Z,14.77
2018-07-22T00:32:03.278Z,13.87
2018-07-22T00:34:31.719Z,18.40
2018-07-22T00:37:00.182Z,17.73
2018-07-22T00:39:28.648Z,19.67
2018-07-22T00:41:57.118Z,19.33
2018-07-22T00:44:25.610Z,20.08
2018-07-22T00:46:54.186Z,21.97
2018-07-22T00:49:22.619Z,20.83
2018-07-22T00:51:51.056Z,24.27
2018-07-22T00:54:19.544Z,24.53
2018-07-22T00:56:49.079Z,24.60
2018-07-22T00:59:17.533Z,27.87
2018-07-22T01:01:45.974Z,23.37
2018-07-22T01:04:14.387Z,27.43
2018-07-22T01:06:42.898Z,25.90
2018-07-22T01:09:12.295Z,24.20
2018-07-22T01:11:40.752Z,28.10
2018-07-22T01:14:09.405Z,25.70
2018-07-22T01:16:37.886Z,31.57
2018-07-22T01:19:06.772Z,35.23
2018-07-22T01:21:35.227Z,32.33
2018-07-22T01:24:03.851Z,33.38
2018-07-22T01:26:32.349Z,37.10
2018-07-22T01:29:00.979Z,39.88
2018-07-22T01:31:29.453Z,36.47
2018-07-22T01:33:57.859Z,39.70
2018-07-22T01:36:26.328Z,40.13
2018-07-22T01:38:54.814Z,39.73
2018-07-22T01:41:23.255Z,41.00
2018-07-22T01:43:51.874Z,37.70
2018-07-22T01:46:20.319Z,39.93
2018-07-22T01:48:48.773Z,39.53
2018-07-22T01:52:19.891Z,42.53
2018-07-22T01:54:48.374Z,48.13
2018-07-22T01:57:17.044Z,43.20
2018-07-22T01:59:45.490Z,47.47
2018-07-22T02:02:14.136Z,42.73
2018-07-22T02:04:42.859Z,56.33
2018-07-22T02:07:11.403Z,61.37
2018-07-22T02:09:39.881Z,59.83
2018-07-22T02:12:08.747Z,59.48
2018-07-22T02:14:37.235Z,60.17
2018-07-22T02:17:05.716Z,60.83
2018-07-22T02:19:34.251Z,65.43
2018-07-22T02:22:03.030Z,61.10
2018-07-22T02:24:31.702Z,66.37
2018-07-22T02:27:00.234Z,66.47
2018-07-22T02:29:28.691Z,69.47
2018-07-22T02:31:57.127Z,72.50
2018-07-22T02:34:25.861Z,68.30
2018-07-22T02:36:54.292Z,67.93
2018-07-22T02:39:22.792Z,60.97
2018-07-22T02:41:51.213Z,67.87
2018-07-22T02:44:19.712Z,66.42
2018-07-22T02:46:48.159Z,66.63
2018-07-22T02:49:16.685Z,58.05
2018-07-22T02:51:45.420Z,58.77
2018-07-22T02:54:13.936Z,56.40
2018-07-22T02:56:42.417Z,52.40
2018-07-22T02:59:10.847Z,44.48
2018-07-22T03:01:39.666Z,48.63
2018-07-22T03:04:09.139Z,44.23
2018-07-22T03:06:37.684Z,47.47
2018-07-22T03:09:08.271Z,44.77
2018-07-22T03:11:36.715Z,38.80
2018-07-22T03:14:05.215Z,37.40
2018-07-22T03:16:33.693Z,34.53
2018-07-22T03:19:02.265Z,38.07
2018-07-22T03:21:30.825Z,31.97
2018-07-22T03:23:59.300Z,27.20
2018-07-22T03:26:27.825Z,26.30
2018-07-22T03:28:56.427Z,24.17
2018-07-22T03:31:25.121Z,25.67
2018-07-22T03:33:53.544Z,25.20
2018-07-22T03:36:22.058Z,25.77
2018-07-22T03:38:50.744Z,25.13
2018-07-22T03:41:19.178Z,24.23
2018-07-22T03:43:47.633Z,25.43
2018-07-22T03:46:16.093Z,24.77
2018-07-22T03:48:44.624Z,24.63
2018-07-22T03:51:13.133Z,25.63
2018-07-22T03:53:41.864Z,26.20
2018-07-22T03:56:11.624Z,28.87
2018-07-22T03:58:40.064Z,30.40
2018-07-22T04:01:08.554Z,30.17
2018-07-22T04:03:36.983Z,30.87
2018-07-22T04:06:05.450Z,30.70
2018-07-22T04:11:32.813Z,33.13
2018-07-22T04:14:01.297Z,34.10
2018-07-22T04:16:29.763Z,32.25
2018-07-22T04:18:58.207Z,36.00
2018-07-22T04:21:26.725Z,35.63
2018-07-22T04:23:55.175Z,38.47
2018-07-22T04:26:23.608Z,40.12
2018-07-22T04:28:52.323Z,40.30
2018-07-22T04:31:21.350Z,37.38
2018-07-22T04:33:50.192Z,42.70
2018-07-22T04:36:18.691Z,43.40
2018-07-22T04:38:47.199Z,46.53
2018-07-22T04:41:15.752Z,45.77
2018-07-22T04:43:44.223Z,43.70
2018-07-22T04:46:12.703Z,44.90
2018-07-22T04:48:41.159Z,46.00
2018-07-22T04:51:09.680Z,42.40
2018-07-22T04:53:38.108Z,45.60
2018-07-22T04:56:06.787Z,42.50
2018-07-22T04:58:35.228Z,43.53
2018-07-22T05:01:03.736Z,42.03
2018-07-22T05:03:32.184Z,47.70
2018-07-22T05:06:00.659Z,53.48
2018-07-22T05:08:29.151Z,56.40
2018-07-22T05:10:57.603Z,57.93
2018-07-22T05:13:26.034Z,60.00
2018-07-22T05:15:54.467Z,68.70
2018-07-22T05:18:22.925Z,65.37
2018-07-22T05:20:51.402Z,67.43
2018-07-22T05:23:19.859Z,64.63
2018-07-22T05:25:48.279Z,69.37
2018-07-22T05:28:16.802Z,66.12
2018-07-22T05:30:45.802Z,60.20
2018-07-22T05:33:14.243Z,79.00
2018-07-22T05:35:42.809Z,74.10
2018-07-22T05:38:11.441Z,68.57
2018-07-22T05:40:39.971Z,71.82
2018-07-22T05:43:08.372Z,82.40
2018-07-22T05:45:36.842Z,84.87
2018-07-22T05:48:05.411Z,89.87
2018-07-22T05:50:33.932Z,101.53
2018-07-22T05:53:02.392Z,79.20
2018-07-22T05:55:30.866Z,101.30
2018-07-22T05:57:59.292Z,61.37
2018-07-22T06:00:28.036Z,66.20
2018-07-22T06:02:56.531Z,54.07
2018-07-22T06:05:25.501Z,46.23
2018-07-22T06:07:53.972Z,50.70
2018-07-22T06:10:22.436Z,38.77
2018-07-22T06:12:51.068Z,46.90
2018-07-22T06:15:19.576Z,37.35
2018-07-22T06:17:48.070Z,36.77
2018-07-22T06:20:16.518Z,45.33
2018-07-22T06:22:45.021Z,53.40
2018-07-22T06:25:13.500Z,62.33
2018-07-22T06:27:41.975Z,76.97
2018-07-22T06:30:10.431Z,55.37
2018-07-22T06:32:38.873Z,53.60
2018-07-22T06:35:07.442Z,48.87
2018-07-22T06:37:35.903Z,58.90
2018-07-22T06:40:04.769Z,67.97
2018-07-22T06:42:33.225Z,59.27
2018-07-22T06:45:01.641Z,63.53
2018-07-22T06:47:30.155Z,61.80
2018-07-22T06:49:58.556Z,66.03
2018-07-22T06:52:26.955Z,68.13
2018-07-22T06:54:55.413Z,58.73
2018-07-22T06:57:23.839Z,59.90
2018-07-22T06:59:52.408Z,63.50
2018-07-22T07:02:21.384Z,62.30
2018-07-22T07:04:49.995Z,58.87
2018-07-22T07:07:18.487Z,56.80
2018-07-22T07:09:46.944Z,58.43
2018-07-22T07:12:15.372Z,51.60
2018-07-22T07:14:43.790Z,49.23
2018-07-22T07:17:12.247Z,45.27
2018-07-22T07:19:40.707Z,41.70
2018-07-22T07:22:09.189Z,43.27
2018-07-22T07:24:37.683Z,33.90
2018-07-22T07:27:07.361Z,33.93
2018-07-22T07:29:35.795Z,39.30
2018-07-22T07:32:04.242Z,38.60
2018-07-22T07:34:32.667Z,31.27
2018-07-22T07:37:01.155Z,27.27
2018-07-22T07:39:29.634Z,28.97
2018-07-22T07:41:58.057Z,29.47
2018-07-22T07:44:26.527Z,29.27
2018-07-22T07:46:56.493Z,27.90
2018-07-22T07:49:24.981Z,31.07
2018-07-22T07:51:53.584Z,28.17
2018-07-22T07:54:22.318Z,27.83
2018-07-22T07:56:50.799Z,27.00
2018-07-22T07:59:19.406Z,27.20
2018-07-22T08:01:47.851Z,25.23
2018-07-22T08:04:16.259Z,23.20
2018-07-22T08:06:44.927Z,24.13
2018-07-22T08:09:13.916Z,24.92
2018-07-22T08:11:42.899Z,26.02
2018-07-22T08:14:11.358Z,23.60
2018-07-22T08:16:39.815Z,21.30
2018-07-22T08:19:08.361Z,21.50
2018-07-22T08:21:37.002Z,22.73
2018-07-22T08:24:05.818Z,21.23
2018-07-22T08:26:34.677Z,22.93
2018-07-22T08:29:25.470Z,25.17
2018-07-22T08:31:54.250Z,20.92
2018-07-22T08:34:22.852Z,22.27
2018-07-22T08:36:51.523Z,22.50
2018-07-22T08:39:21.722Z,21.97
2018-07-22T08:41:51.262Z,20.40
2018-07-22T08:44:19.753Z,21.93
2018-07-22T08:46:48.238Z,21.60
2018-07-22T08:49:16.973Z,26.33
2018-07-22T08:51:45.451Z,25.00
2018-07-22T08:54:13.981Z,26.60
2018-07-22T08:56:42.495Z,26.23
2018-07-22T08:59:10.969Z,27.80
2018-07-22T09:01:39.764Z,24.77
2018-07-22T09:04:08.264Z,27.40
2018-07-22T09:06:36.783Z,27.33
2018-07-22T09:09:08.590Z,26.73
2018-07-22T09:11:37.236Z,25.73
2018-07-22T09:14:06.155Z,28.00
2018-07-22T09:16:34.586Z,26.23
2018-07-22T09:19:03.111Z,24.93
2018-07-22T09:21:31.561Z,28.23
2018-07-22T09:25:02.920Z,29.40
2018-07-22T09:27:31.548Z,27.70
2018-07-22T09:30:00.012Z,29.40
2018-07-22T09:32:28.493Z,26.23
2018-07-22T09:34:56.961Z,25.33
2018-07-22T09:37:25.450Z,26.60
2018-07-22T09:39:54.008Z,26.43
2018-07-22T09:42:22.463Z,28.90
2018-07-22T09:44:50.936Z,30.53
2018-07-22T09:47:19.374Z,31.43
2018-07-22T09:49:48.148Z,30.93
2018-07-22T09:52:16.598Z,30.27
2018-07-22T09:54:45.258Z,34.48
2018-07-22T09:57:13.899Z,36.07
2018-07-22T09:59:42.359Z,37.78
2018-07-22T10:02:10.834Z,37.45
2018-07-22T10:04:39.378Z,35.57
2018-07-22T10:07:08.855Z,42.13
2018-07-22T10:09:37.302Z,37.90
2018-07-22T10:12:06.179Z,36.13
2018-07-22T10:14:34.621Z,56.77
2018-07-22T10:17:03.098Z,41.30
2018-07-22T10:19:31.527Z,39.83
2018-07-22T10:21:59.952Z,44.70
2018-07-22T10:24:28.442Z,42.13
2018-07-22T10:26:56.894Z,43.93
2018-07-22T10:29:25.349Z,42.13
2018-07-22T10:31:53.843Z,48.70
2018-07-22T10:34:22.608Z,40.30
2018-07-22T10:36:51.164Z,40.23
2018-07-22T10:39:19.684Z,41.60
2018-07-22T10:41:48.215Z,41.00
2018-07-22T10:44:16.655Z,42.73
2018-07-22T10:46:45.098Z,43.10
2018-07-22T10:49:13.546Z,40.45
2018-07-22T10:51:42.024Z,41.20
2018-07-22T10:54:10.501Z,40.80
2018-07-22T10:56:38.914Z,43.27
2018-07-22T10:59:07.365Z,42.73
2018-07-22T11:01:35.843Z,45.78
2018-07-22T11:04:04.304Z,43.20
2018-07-22T11:06:32.778Z,65.60
2018-07-22T11:09:01.203Z,43.97
2018-07-22T11:11:29.656Z,45.27
2018-07-22T11:13:58.100Z,46.57
2018-07-22T11:16:26.526Z,46.50
2018-07-22T11:18:55.058Z,46.47
2018-07-22T11:21:24.130Z,45.80
2018-07-22T11:23:52.547Z,41.70
2018-07-22T11:26:21.132Z,43.90
2018-07-22T11:28:49.688Z,46.00
2018-07-22T11:31:18.115Z,43.60
2018-07-22T11:33:46.583Z,42.70
2018-07-22T11:36:15.088Z,44.33
2018-07-22T11:38:43.546Z,42.97
2018-07-22T11:41:12.371Z,39.23
2018-07-22T11:43:40.810Z,39.10
2018-07-22T11:46:09.684Z,43.50
2018-07-22T11:48:38.193Z,37.90
2018-07-22T11:51:06.646Z,38.87
2018-07-22T11:53:35.211Z,41.13
2018-07-22T11:56:03.862Z,43.00
2018-07-22T11:58:32.309Z,42.87
2018-07-22T12:01:00.771Z,36.93
2018-07-22T12:03:29.220Z,37.93
2018-07-22T12:05:58.071Z,34.70
2018-07-22T12:08:26.484Z,32.63
2018-07-22T12:10:54.951Z,26.80
2018-07-22T12:13:23.411Z,30.68
2018-07-22T12:15:51.912Z,37.40
2018-07-22T12:18:20.511Z,30.70
2018-07-22T12:20:48.967Z,27.50
2018-07-22T12:23:17.396Z,27.63
2018-07-22T12:25:46.115Z,26.77
2018-07-22T12:28:14.682Z,27.27
2018-07-22T12:30:43.048Z,28.23
2018-07-22T12:33:11.515Z,28.30
2018-07-22T12:35:39.946Z,27.33
2018-07-22T12:38:08.372Z,28.83
2018-07-22T12:40:36.801Z,28.87
2018-07-22T12:43:05.250Z,29.40
2018-07-22T12:45:33.916Z,30.60
2018-07-22T12:48:02.577Z,31.50
2018-07-22T12:50:31.058Z,32.97
2018-07-22T12:52:59.532Z,31.40
2018-07-22T12:55:28.000Z,31.35
2018-07-22T12:57:56.467Z,36.67
2018-07-22T13:00:24.891Z,31.10
2018-07-22T13:02:53.352Z,31.73
2018-07-22T13:05:21.809Z,30.10
2018-07-22T13:07:50.205Z,32.67
2018-07-22T13:10:18.668Z,30.88
2018-07-22T13:12:47.095Z,29.60
2018-07-22T13:15:15.600Z,30.50
2018-07-22T13:17:44.039Z,27.17
2018-07-22T13:20:12.524Z,27.07
2018-07-22T13:22:41.057Z,28.00
2018-07-22T13:25:09.486Z,26.97
2018-07-22T13:27:38.152Z,25.87
2018-07-22T13:30:07.439Z,24.73
2018-07-22T13:32:35.973Z,24.20
2018-07-22T13:35:05.027Z,23.80
2018-07-22T13:37:33.896Z,26.90
2018-07-22T13:40:02.395Z,23.33
2018-07-22T13:42:30.830Z,23.47
2018-07-22T13:44:59.345Z,23.83
2018-07-22T13:47:27.966Z,19.97
2018-07-22T13:49:56.410Z,17.47
2018-07-22T13:52:25.280Z,17.30
2018-07-22T13:54:53.911Z,17.27
2018-07-22T13:57:22.354Z,15.60
2018-07-22T13:59:50.832Z,15.63
2018-07-22T14:02:19.286Z,17.70
2018-07-22T14:04:48.019Z,15.80
2018-07-22T14:07:16.723Z,16.27
2018-07-22T14:09:45.193Z,17.10
2018-07-22T14:12:13.604Z,17.07
2018-07-22T14:14:42.185Z,16.17
2018-07-22T14:17:10.605Z,16.67
2018-07-22T14:19:39.042Z,19.75
2018-07-22T14:22:07.492Z,18.80
2018-07-22T14:24:35.920Z,18.50
2018-07-22T14:27:04.387Z,18.27
2018-07-22T14:29:33.184Z,20.37
2018-07-22T14:32:01.853Z,23.17
2018-07-22T14:34:30.656Z,20.03
2018-07-22T14:36:59.111Z,21.43
2018-07-22T14:39:27.812Z,23.73
2018-07-22T14:41:56.281Z,21.33
2018-07-22T14:44:24.768Z,23.43
2018-07-22T14:46:53.246Z,23.60
2018-07-22T14:49:21.631Z,22.10
2018-07-22T14:51:50.075Z,22.27
2018-07-22T14:54:18.502Z,24.33
2018-07-22T14:56:46.990Z,24.55
2018-07-22T14:59:15.397Z,23.43
2018-07-22T15:01:43.862Z,23.60
2018-07-22T15:04:12.303Z,22.50
2018-07-22T15:06:41.085Z,21.75
2018-07-22T15:09:10.109Z,21.60
2018-07-22T15:11:38.608Z,20.77
2018-07-22T15:14:07.068Z,24.10
2018-07-22T15:16:35.446Z,26.13
2018-07-22T15:19:03.980Z,19.87
2018-07-22T15:21:32.387Z,23.07
2018-07-22T15:24:00.895Z,23.00
2018-07-22T15:26:29.422Z,23.80
2018-07-22T15:28:57.888Z,26.20
2018-07-22T15:31:26.347Z,26.17
2018-07-22T15:33:54.792Z,28.70
2018-07-22T15:36:23.219Z,27.30
2018-07-22T15:38:51.635Z,25.20
2018-07-22T15:41:20.074Z,27.35
2018-07-22T15:43:48.591Z,27.90
2018-07-22T15:46:17.031Z,27.83
2018-07-22T15:48:45.484Z,28.10
2018-07-22T15:51:13.942Z,30.43
2018-07-22T15:53:42.411Z,32.83
2018-07-22T15:56:10.882Z,35.70
2018-07-22T15:58:39.361Z,33.90
2018-07-22T16:01:08.136Z,33.50
2018-07-22T16:03:36.779Z,35.03
2018-07-22T16:06:05.571Z,32.13
2018-07-22T16:08:34.775Z,36.47
2018-07-22T16:11:03.199Z,38.53
2018-07-22T16:13:31.675Z,35.27
2018-07-22T16:16:00.113Z,34.60
2018-07-22T16:18:28.571Z,34.00
2018-07-22T16:20:57.091Z,34.25
2018-07-22T16:23:25.583Z,35.33
2018-07-22T16:25:54.096Z,33.83
2018-07-22T16:28:22.551Z,32.80
2018-07-22T16:30:51.027Z,35.60
2018-07-22T16:33:19.494Z,33.73
2018-07-22T16:35:47.982Z,34.60
2018-07-22T16:38:16.380Z,33.27
2018-07-22T16:40:44.844Z,33.00
2018-07-22T16:43:13.316Z,33.83
2018-07-22T16:45:41.751Z,32.40
2018-07-22T16:48:10.230Z,31.67
2018-07-22T16:50:38.648Z,33.40
2018-07-22T16:53:07.116Z,34.40
2018-07-22T16:55:35.581Z,32.00
2018-07-22T16:58:04.015Z,31.20
2018-07-22T17:00:32.691Z,32.93
2018-07-22T17:03:01.105Z,32.63
2018-07-22T17:05:29.551Z,35.92
2018-07-22T17:07:58.036Z,32.03
2018-07-22T17:10:26.460Z,30.83
2018-07-22T17:12:55.621Z,32.30
2018-07-22T17:15:24.073Z,30.90
2018-07-22T17:17:52.534Z,30.90
2018-07-22T17:20:21.023Z,29.87
2018-07-22T17:22:49.405Z,29.70
2018-07-22T17:25:18.153Z,30.70
2018-07-22T17:27:46.866Z,30.27
2018-07-22T17:30:15.300Z,32.23
2018-07-22T17:32:43.840Z,34.40
2018-07-22T17:35:12.420Z,31.10
2018-07-22T17:37:40.854Z,29.23
2018-07-22T17:40:09.429Z,30.43
2018-07-22T17:42:37.925Z,28.90
2018-07-22T17:45:06.424Z,30.27
2018-07-22T17:47:34.849Z,26.90
2018-07-22T17:50:03.300Z,28.37
2018-07-22T17:52:31.733Z,26.80
2018-07-22T17:55:00.264Z,26.10
2018-07-22T17:57:28.785Z,25.40
2018-07-22T17:59:57.214Z,24.40
2018-07-22T18:02:25.696Z,24.00
2018-07-22T18:04:54.155Z,23.53
2018-07-22T18:07:22.795Z,22.27
2018-07-22T18:09:51.924Z,23.10
2018-07-22T18:12:20.424Z,20.63
2018-07-22T18:14:48.884Z,21.67
2018-07-22T18:17:17.335Z,20.05
2018-07-22T18:19:45.816Z,19.10
2018-07-22T18:22:14.275Z,18.83
2018-07-22T18:24:43.524Z,17.97
2018-07-22T18:27:11.992Z,17.93
2018-07-22T18:29:40.467Z,16.93
2018-07-22T18:32:08.909Z,14.78
2018-07-22T18:34:37.315Z,16.10
2018-07-22T18:37:05.855Z,15.53
2018-07-22T18:39:34.243Z,14.80
2018-07-22T18:42:02.715Z,14.63
2018-07-22T18:44:31.216Z,13.70
2018-07-22T18:46:59.629Z,16.97
2018-07-22T18:49:28.543Z,17.50
2018-07-22T18:51:56.996Z,14.53
2018-07-22T18:54:25.541Z,14.67
2018-07-22T18:56:54.042Z,16.40
2018-07-22T18:59:22.838Z,15.60
2018-07-22T19:01:51.312Z,16.80
2018-07-22T19:04:18.851Z,17.23
2018-07-22T19:06:47.360Z,15.83
2018-07-22T19:10:18.564Z,16.50
2018-07-22T19:12:47.367Z,17.03
2018-07-22T19:15:15.804Z,17.82
2018-07-22T19:17:44.446Z,17.93
2018-07-22T19:20:12.954Z,16.95
2018-07-22T19:22:41.580Z,16.70
2018-07-22T19:25:10.346Z,16.23
2018-07-22T19:27:39.256Z,15.77
2018-07-22T19:30:07.748Z,14.83
2018-07-22T19:32:36.348Z,16.02
2018-07-22T19:35:05.185Z,14.67
2018-07-22T19:37:33.782Z,16.10
2018-07-22T19:40:02.255Z,15.67
2018-07-22T19:42:30.891Z,14.63
2018-07-22T19:44:59.352Z,13.17
2018-07-22T19:47:27.780Z,12.77
2018-07-22T19:49:56.211Z,11.87
2018-07-22T19:52:24.886Z,12.13
2018-07-22T19:54:53.412Z,11.20
2018-07-22T19:57:21.858Z,11.63
2018-07-22T19:59:50.260Z,9.90
2018-07-22T20:02:18.734Z,11.73
2018-07-22T20:04:47.171Z,15.37
2018-07-22T20:07:15.604Z,12.82
2018-07-22T20:09:44.324Z,12.20
2018-07-22T20:12:12.811Z,11.50
2018-07-22T20:14:41.370Z,11.20
2018-07-22T20:17:12.128Z,10.75
2018-07-22T20:19:40.907Z,10.72
2018-07-22T20:22:09.362Z,9.90
2018-07-22T20:24:37.814Z,10.37
2018-07-22T20:27:06.900Z,14.10
2018-07-22T20:29:35.606Z,14.40
2018-07-22T20:32:04.421Z,12.13
2018-07-22T20:34:32.888Z,11.77
2018-07-22T20:37:01.348Z,13.90
2018-07-22T20:39:29.820Z,13.00
2018-07-22T20:41:58.276Z,13.80
2018-07-22T20:44:27.199Z,13.18
2018-07-22T20:46:55.665Z,12.87
2018-07-22T20:49:24.110Z,15.10
2018-07-22T20:51:52.559Z,15.80
2018-07-22T20:54:20.998Z,13.97
2018-07-22T20:56:49.555Z,16.17
2018-07-22T20:59:18.115Z,14.97
2018-07-22T21:01:46.603Z,13.67
2018-07-22T21:04:15.079Z,15.20
2018-07-22T21:06:43.523Z,16.07
2018-07-22T21:09:12.551Z,13.93
2018-07-22T21:11:52.130Z,14.63
2018-07-22T21:14:20.757Z,14.83
2018-07-22T21:16:49.878Z,16.70
2018-07-22T21:19:18.292Z,17.70
2018-07-22T21:21:46.909Z,17.97
2018-07-22T21:24:15.371Z,17.37
2018-07-22T21:26:44.200Z,17.93
2018-07-22T21:29:12.787Z,19.40
2018-07-22T21:31:41.186Z,18.37
2018-07-22T21:34:09.808Z,20.10
2018-07-22T21:36:38.223Z,21.87
2018-07-22T21:39:08.909Z,18.33
2018-07-22T21:41:37.353Z,20.43
2018-07-22T21:44:06.487Z,22.23
2018-07-22T21:46:34.923Z,24.33
2018-07-22T21:49:03.429Z,22.07
2018-07-22T21:51:31.877Z,22.53
2018-07-22T21:54:00.332Z,24.40
2018-07-22T21:56:29.008Z,23.22
2018-07-22T21:58:57.453Z,24.10
2018-07-22T22:03:32.595Z,25.60
2018-07-22T22:06:01.071Z,25.55
2018-07-22T22:08:29.684Z,24.97
2018-07-22T22:10:58.092Z,26.27
2018-07-22T22:13:26.526Z,28.97
2018-07-22T22:15:55.012Z,28.90
2018-07-22T22:18:23.448Z,26.93
2018-07-22T22:20:52.438Z,27.00
2018-07-22T22:23:20.898Z,27.07
2018-07-22T22:25:49.451Z,28.63
2018-07-22T22:28:17.900Z,30.80
2018-07-22T22:30:46.346Z,27.03
2018-07-22T22:33:14.784Z,26.35
2018-07-22T22:35:43.238Z,28.57
2018-07-22T22:38:11.711Z,30.30
2018-07-22T22:40:40.127Z,30.10
2018-07-22T22:43:08.532Z,32.70
2018-07-22T22:45:37.012Z,36.88
2018-07-22T22:48:05.492Z,32.70
2018-07-22T22:50:34.029Z,31.37
2018-07-22T22:53:02.496Z,37.43
2018-07-22T22:55:30.929Z,35.60
2018-07-22T22:58:10.531Z,40.23
2018-07-22T23:00:39.144Z,37.90
2018-07-22T23:03:07.812Z,37.93
2018-07-22T23:05:36.596Z,36.77
2018-07-22T23:08:05.238Z,36.97
2018-07-22T23:10:33.793Z,36.73
2018-07-22T23:13:02.256Z,48.87
2018-07-22T23:15:30.884Z,37.40
2018-07-22T23:17:59.310Z,40.13
2018-07-22T23:20:27.737Z,39.50
2018-07-22T23:22:56.199Z,39.70
2018-07-22T23:25:24.844Z,34.83
2018-07-22T23:27:53.347Z,39.78
2018-07-22T23:30:21.790Z,34.63
2018-07-22T23:32:50.214Z,35.00
2018-07-22T23:35:18.654Z,40.10
2018-07-22T23:37:47.169Z,37.93
2018-07-22T23:40:15.611Z,39.33
2018-07-22T23:42:44.388Z,37.23
2018-07-22T23:45:12.888Z,39.03
2018-07-22T23:47:41.336Z,35.37
2018-07-22T23:50:09.791Z,35.70
2018-07-22T23:52:38.365Z,37.03
2018-07-22T23:55:06.835Z,39.73
2018-07-22T23:57:35.246Z,36.73
